createdAt,value
2023-03-26T00:00:55.120Z,11.50
2023-03-26T00:03:25.992Z,19.25
2023-03-26T00:06:07.769Z,15.75
2023-03-26T00:08:39.782Z,27.25
2023-03-26T00:11:12.712Z,31.25
2023-03-26T00:13:45.489Z,33.25
2023-03-26T00:16:19.270Z,42.25
2023-03-26T00:18:49.655Z,43.00
2023-03-26T00:21:23.784Z,42.25
2023-03-26T00:23:59.336Z,51.00
2023-03-26T00:26:30.932Z,51.50
2023-03-26T00:29:01.795Z,33.25
2023-03-26T00:31:33.161Z,32.75
2023-03-26T00:34:04.688Z,29.00
2023-03-26T00:36:35.629Z,29.50
2023-03-26T00:39:06.709Z,34.00
2023-03-26T00:41:37.796Z,37.75
2023-03-26T00:44:08.048Z,44.00
2023-03-26T00:46:39.107Z,41.75
2023-03-26T00:49:09.684Z,36.50
2023-03-26T00:51:46.526Z,32.25
2023-03-26T00:54:16.938Z,35.75
2023-03-26T00:56:47.417Z,42.75
2023-03-26T00:59:17.896Z,40.50
2023-03-26T01:01:48.340Z,36.25
2023-03-26T01:04:28.974Z,40.75
2023-03-26T01:07:03.070Z,36.00
2023-03-26T01:09:37.133Z,31.50
2023-03-26T01:12:11.090Z,25.00
2023-03-26T01:14:43.976Z,24.00
2023-03-26T01:17:15.133Z,18.25
2023-03-26T01:19:52.630Z,19.25
2023-03-26T01:22:26.095Z,25.75
2023-03-26T01:24:56.946Z,24.00
2023-03-26T01:27:48.760Z,23.00
2023-03-26T01:30:30.935Z,26.75
2023-03-26T01:33:38.795Z,34.00
2023-03-26T01:36:12.307Z,37.75
2023-03-26T01:39:09.394Z,35.75
2023-03-26T01:41:46.011Z,37.50
2023-03-26T01:44:38.882Z,39.50
2023-03-26T01:47:12.164Z,43.50
2023-03-26T01:49:43.418Z,44.75
2023-03-26T01:52:17.199Z,34.00
2023-03-26T01:54:48.836Z,39.00
2023-03-26T01:57:22.209Z,34.25
2023-03-26T02:00:20.278Z,25.50
2023-03-26T02:03:10.330Z,30.75
2023-03-26T02:05:49.508Z,29.25
2023-03-26T02:08:26.766Z,29.00
2023-03-26T02:10:59.912Z,29.25
2023-03-26T02:13:31.066Z,30.50
2023-03-26T02:16:05.090Z,15.75
2023-03-26T02:18:37.497Z,25.75
2023-03-26T02:21:10.930Z,31.25
2023-03-26T02:23:43.581Z,33.75
2023-03-26T02:26:16.969Z,32.25
2023-03-26T02:28:47.447Z,28.50
2023-03-26T02:31:18.436Z,34.00
2023-03-26T02:33:48.814Z,39.75
2023-03-26T02:36:19.884Z,36.00
2023-03-26T02:38:50.441Z,36.50
2023-03-26T02:41:21.583Z,4.00
2023-03-26T02:43:52.642Z,34.00
2023-03-26T02:46:23.332Z,34.00
2023-03-26T02:48:54.345Z,34.00
2023-03-26T02:51:25.637Z,26.75
2023-03-26T02:53:56.773Z,24.25
2023-03-26T02:56:27.459Z,20.00
2023-03-26T02:58:57.878Z,29.00
2023-03-26T03:01:28.410Z,29.50
2023-03-26T03:03:59.166Z,24.75
2023-03-26T03:06:29.694Z,23.00
2023-03-26T03:09:01.662Z,22.00
2023-03-26T03:11:32.958Z,24.75
2023-03-26T03:14:03.939Z,21.00
2023-03-26T03:16:35.089Z,21.00
2023-03-26T03:19:05.916Z,16.50
2023-03-26T03:21:37.055Z,12.50
2023-03-26T03:24:08.713Z,16.00
2023-03-26T03:26:39.455Z,15.00
2023-03-26T03:29:10.756Z,13.75
2023-03-26T03:31:42.092Z,16.50
2023-03-26T03:34:12.474Z,10.25
2023-03-26T03:36:43.765Z,13.00
2023-03-26T03:39:15.449Z,12.50
2023-03-26T03:41:46.094Z,14.50
2023-03-26T03:44:16.540Z,9.00
2023-03-26T03:46:46.784Z,6.75
2023-03-26T03:49:17.780Z,11.75
2023-03-26T03:51:48.310Z,12.50
2023-03-26T03:54:19.628Z,8.75
2023-03-26T03:56:50.784Z,8.00
2023-03-26T03:59:21.615Z,9.75
2023-03-26T04:01:52.653Z,9.25
2023-03-26T04:04:23.058Z,10.00
2023-03-26T04:06:54.013Z,8.00
2023-03-26T04:09:24.457Z,12.25
2023-03-26T04:11:55.510Z,10.00
2023-03-26T04:14:26.412Z,10.00
2023-03-26T04:16:56.740Z,12.00
2023-03-26T04:19:30.195Z,15.00
2023-03-26T04:22:00.916Z,3.00
2023-03-26T04:24:32.244Z,11.25
2023-03-26T04:27:03.063Z,11.25
2023-03-26T04:29:36.973Z,10.00
2023-03-26T04:32:10.880Z,12.50
2023-03-26T04:34:41.776Z,9.00
2023-03-26T04:40:16.054Z,8.00
2023-03-26T04:42:46.641Z,9.00
2023-03-26T04:45:19.367Z,11.50
2023-03-26T04:47:50.439Z,8.00
2023-03-26T04:50:21.602Z,8.25
2023-03-26T04:52:55.216Z,9.00
2023-03-26T04:55:36.194Z,7.00
2023-03-26T04:58:07.056Z,8.00
2023-03-26T05:00:37.595Z,7.75
2023-03-26T05:03:10.295Z,9.00
2023-03-26T05:05:41.982Z,2.00
2023-03-26T05:08:12.538Z,10.00
2023-03-26T05:10:43.068Z,9.25
2023-03-26T05:13:14.074Z,10.00
2023-03-26T05:15:46.500Z,8.00
2023-03-26T05:18:20.225Z,9.50
2023-03-26T05:20:50.656Z,10.50
2023-03-26T05:23:21.532Z,9.00
2023-03-26T05:25:52.034Z,4.50
2023-03-26T05:28:25.145Z,8.25
2023-03-26T05:30:56.228Z,9.50
2023-03-26T05:33:27.381Z,9.00
2023-03-26T05:36:03.916Z,8.00
2023-03-26T05:38:35.726Z,8.00
2023-03-26T05:41:27.065Z,8.00
2023-03-26T05:43:58.029Z,11.25
2023-03-26T05:46:28.883Z,8.50
2023-03-26T05:48:59.939Z,27.75
2023-03-26T05:51:30.961Z,19.75
2023-03-26T05:54:01.410Z,16.00
2023-03-26T05:56:32.180Z,8.75
2023-03-26T05:59:03.491Z,8.25
2023-03-26T06:01:34.276Z,15.75
2023-03-26T06:04:05.406Z,26.50
2023-03-26T06:06:38.635Z,5.25
2023-03-26T06:09:12.707Z,15.00
2023-03-26T06:11:54.789Z,12.25
2023-03-26T06:14:25.934Z,10.75
2023-03-26T06:16:56.896Z,6.00
2023-03-26T06:19:31.204Z,11.75
2023-03-26T06:25:15.326Z,7.75
2023-03-26T06:27:53.653Z,7.25
2023-03-26T06:30:30.608Z,6.25
2023-03-26T06:33:05.164Z,9.00
2023-03-26T06:35:41.133Z,7.00
2023-03-26T06:38:12.458Z,6.50
2023-03-26T06:40:43.624Z,4.75
2023-03-26T06:43:14.133Z,7.25
2023-03-26T06:45:44.487Z,5.50
2023-03-26T06:48:15.061Z,52.00
2023-03-26T06:50:45.365Z,4.50
2023-03-26T06:53:16.295Z,4.50
2023-03-26T06:55:50.023Z,3.75
2023-03-26T06:58:23.377Z,3.50
2023-03-26T07:00:58.935Z,6.00
2023-03-26T07:03:33.772Z,7.50
2023-03-26T07:06:09.704Z,19.00
2023-03-26T07:08:40.006Z,19.25
2023-03-26T07:11:10.473Z,20.00
2023-03-26T07:13:40.814Z,6.00
2023-03-26T07:16:11.516Z,9.50
2023-03-26T07:18:41.843Z,3.00
2023-03-26T07:21:13.285Z,7.00
2023-03-26T07:23:44.102Z,4.25
2023-03-26T07:26:36.342Z,1.25
2023-03-26T07:29:12.925Z,4.00
2023-03-26T07:31:55.690Z,0.00
2023-03-26T07:34:41.414Z,3.50
2023-03-26T07:37:33.999Z,3.00
2023-03-26T07:40:07.355Z,4.00
2023-03-26T07:42:58.706Z,4.75
2023-03-26T07:45:45.798Z,3.50
2023-03-26T07:48:24.359Z,3.50
2023-03-26T07:50:55.697Z,5.50
2023-03-26T07:53:27.877Z,8.00
2023-03-26T07:56:04.251Z,3.75
2023-03-26T07:58:55.590Z,7.25
2023-03-26T08:01:37.985Z,8.00
2023-03-26T08:04:32.206Z,7.00
2023-03-26T08:07:06.653Z,7.75
2023-03-26T08:10:03.736Z,4.25
2023-03-26T08:13:01.675Z,4.00
2023-03-26T08:15:35.022Z,4.50
2023-03-26T08:18:26.478Z,6.00
2023-03-26T08:21:21.601Z,4.25
2023-03-26T08:24:15.796Z,7.00
2023-03-26T08:27:04.362Z,4.50
2023-03-26T08:29:43.987Z,5.00
2023-03-26T08:32:17.298Z,3.00
2023-03-26T08:34:47.744Z,3.00
2023-03-26T08:37:18.258Z,5.00
2023-03-26T08:39:48.712Z,4.50
2023-03-26T08:42:39.533Z,5.50
2023-03-26T08:45:19.092Z,7.50
2023-03-26T08:48:02.242Z,1.75
2023-03-26T08:51:02.243Z,7.00
2023-03-26T08:53:50.962Z,3.00
2023-03-26T08:56:29.848Z,2.75
2023-03-26T08:59:36.228Z,6.00
2023-03-26T09:02:44.593Z,4.50
2023-03-26T09:05:33.239Z,4.00
2023-03-26T09:08:33.593Z,2.25
2023-03-26T09:14:34.693Z,4.00
2023-03-26T09:17:14.171Z,3.75
2023-03-26T09:19:56.365Z,4.00
2023-03-26T09:22:46.284Z,4.00
2023-03-26T09:25:31.524Z,5.50
2023-03-26T09:31:43.091Z,4.25
2023-03-26T09:34:31.281Z,8.25
2023-03-26T09:40:06.465Z,9.75
2023-03-26T09:42:39.953Z,5.25
2023-03-26T09:45:22.206Z,6.75
2023-03-26T09:48:13.439Z,4.00
2023-03-26T09:51:21.160Z,5.75
2023-03-26T09:54:10.924Z,4.25
2023-03-26T09:56:45.032Z,5.75
2023-03-26T09:59:18.363Z,5.00
2023-03-26T10:02:08.509Z,4.75
2023-03-26T10:04:58.602Z,4.50
2023-03-26T10:07:47.038Z,6.75
2023-03-26T10:10:41.505Z,6.25
2023-03-26T10:13:15.288Z,5.75
2023-03-26T10:16:10.070Z,4.25
2023-03-26T10:18:55.472Z,3.00
2023-03-26T10:21:47.505Z,3.00
2023-03-26T10:24:26.976Z,4.00
2023-03-26T10:27:09.940Z,3.00
2023-03-26T10:30:14.210Z,3.00
2023-03-26T10:32:53.824Z,3.50
2023-03-26T10:35:33.131Z,3.00
2023-03-26T10:41:19.339Z,3.25
2023-03-26T10:44:05.127Z,3.25
2023-03-26T10:46:57.636Z,3.75
2023-03-26T10:49:48.832Z,4.00
2023-03-26T10:52:25.080Z,4.00
2023-03-26T10:55:17.044Z,1.00
2023-03-26T11:01:08.405Z,2.50
2023-03-26T11:03:47.838Z,3.50
2023-03-26T11:09:45.654Z,2.00
2023-03-26T11:12:28.484Z,3.00
2023-03-26T11:15:23.592Z,3.00
2023-03-26T11:18:18.101Z,2.50
2023-03-26T11:21:21.254Z,2.00
2023-03-26T11:24:04.818Z,2.00
2023-03-26T11:26:47.913Z,3.50
2023-03-26T11:29:32.937Z,3.75
2023-03-26T11:32:17.214Z,2.75
2023-03-26T11:34:56.353Z,2.00
2023-03-26T11:40:27.107Z,3.00
2023-03-26T11:43:00.851Z,4.00
2023-03-26T11:45:36.993Z,3.75
2023-03-26T11:48:19.749Z,4.00
2023-03-26T11:50:52.970Z,2.75
2023-03-26T11:53:27.349Z,2.75
2023-03-26T11:56:03.985Z,3.00
2023-03-26T11:58:56.363Z,4.50
2023-03-26T12:01:30.972Z,3.00
2023-03-26T12:04:14.661Z,3.00
2023-03-26T12:06:52.392Z,2.75
2023-03-26T12:09:25.333Z,4.00
2023-03-26T12:11:59.302Z,3.25
2023-03-26T12:14:33.218Z,3.25
2023-03-26T12:17:07.395Z,2.50
2023-03-26T12:19:44.706Z,2.00
2023-03-26T12:22:41.732Z,3.75
2023-03-26T12:25:20.660Z,3.00
2023-03-26T12:28:11.021Z,0.00
2023-03-26T12:30:44.044Z,2.00
2023-03-26T12:33:34.954Z,2.50
2023-03-26T12:36:25.893Z,3.00
2023-03-26T12:39:16.244Z,4.00
2023-03-26T12:44:43.719Z,4.75
2023-03-26T12:44:45.938Z,8.75
2023-03-26T12:47:58.862Z,6.75
2023-03-26T12:50:13.958Z,5.25
2023-03-26T12:53:09.336Z,3.00
2023-03-26T12:59:31.668Z,2.75
2023-03-26T13:05:07.137Z,3.00
2023-03-26T13:07:42.531Z,2.50
2023-03-26T13:10:40.062Z,2.00
2023-03-26T13:13:25.950Z,2.75
2023-03-26T13:18:48.060Z,2.75
2023-03-26T13:24:37.308Z,2.50
2023-03-26T13:27:28.955Z,3.00
2023-03-26T13:30:22.138Z,2.00
2023-03-26T13:33:04.623Z,6.00
2023-03-26T13:35:40.840Z,4.75
2023-03-26T13:38:35.459Z,4.00
2023-03-26T13:41:26.180Z,3.50
2023-03-26T13:44:02.365Z,3.25
2023-03-26T13:46:50.622Z,2.00
2023-03-26T13:49:42.340Z,4.50
2023-03-26T13:52:28.227Z,4.25
2023-03-26T13:57:47.934Z,3.00
2023-03-26T14:00:21.572Z,2.75
2023-03-26T14:03:07.557Z,3.00
2023-03-26T14:05:44.381Z,4.25
2023-03-26T14:08:38.481Z,3.75
2023-03-26T14:11:18.610Z,2.00
2023-03-26T14:16:43.961Z,1.00
2023-03-26T14:19:40.816Z,3.25
2023-03-26T14:22:17.265Z,3.25
2023-03-26T14:24:53.559Z,2.00
2023-03-26T14:27:52.528Z,3.00
2023-03-26T14:30:53.343Z,3.25
2023-03-26T14:33:47.556Z,3.50
2023-03-26T14:36:49.524Z,3.00
2023-03-26T14:39:29.128Z,3.25
2023-03-26T14:42:25.316Z,1.50
2023-03-26T14:45:08.717Z,2.75
2023-03-26T14:47:42.667Z,5.00
2023-03-26T14:50:37.994Z,2.75
2023-03-26T14:53:14.309Z,2.50
2023-03-26T14:56:15.717Z,6.00
2023-03-26T15:02:28.095Z,35.25
2023-03-26T15:05:28.327Z,8.50
2023-03-26T15:08:17.957Z,5.50
2023-03-26T15:11:10.555Z,2.75
2023-03-26T15:14:15.503Z,35.00
2023-03-26T15:17:12.682Z,2.00
2023-03-26T15:23:30.848Z,3.00
2023-03-26T15:26:43.081Z,5.00
2023-03-26T15:29:35.797Z,6.00
2023-03-26T15:32:40.565Z,4.25
2023-03-26T15:35:33.071Z,5.00
2023-03-26T15:38:36.376Z,8.00
2023-03-26T15:41:25.973Z,18.00
2023-03-26T15:44:23.993Z,6.25
2023-03-26T15:46:50.201Z,9.50
2023-03-26T15:49:40.327Z,4.00
2023-03-26T15:52:30.151Z,4.25
2023-03-26T15:55:29.575Z,4.75
2023-03-26T15:58:09.685Z,3.00
2023-03-26T16:01:03.993Z,3.25
2023-03-26T16:03:57.392Z,5.50
2023-03-26T16:06:33.084Z,5.00
2023-03-26T16:09:21.934Z,7.50
2023-03-26T16:15:28.130Z,4.00
2023-03-26T16:18:14.403Z,8.75
2023-03-26T16:21:31.337Z,9.00
2023-03-26T16:30:22.968Z,24.75
2023-03-26T16:36:09.905Z,7.00
2023-03-26T16:38:49.710Z,7.00
2023-03-26T16:44:46.069Z,8.00
2023-03-26T16:47:33.553Z,8.00
2023-03-26T16:50:27.757Z,8.75
2023-03-26T16:53:54.111Z,1.00
2023-03-26T16:56:56.700Z,8.25
2023-03-26T16:59:46.618Z,5.00
2023-03-26T17:02:25.106Z,19.00
2023-03-26T17:08:36.605Z,9.25
2023-03-26T17:10:59.784Z,9.75
2023-03-26T17:13:45.164Z,8.50
2023-03-26T17:16:27.467Z,10.75
2023-03-26T17:19:12.939Z,9.00
2023-03-26T17:22:10.437Z,13.75
2023-03-26T17:24:59.663Z,5.25
2023-03-26T17:27:50.477Z,12.00
2023-03-26T17:30:40.341Z,12.75
2023-03-26T17:33:29.139Z,10.25
2023-03-26T17:39:01.684Z,16.00
2023-03-26T17:41:56.880Z,16.00
2023-03-26T17:44:38.770Z,8.00
2023-03-26T17:47:40.798Z,11.00
2023-03-26T17:50:20.317Z,8.75
2023-03-26T17:53:02.480Z,11.00
2023-03-26T17:55:36.056Z,8.50
2023-03-26T17:58:10.162Z,9.25
2023-03-26T18:00:51.828Z,10.75
2023-03-26T18:03:25.202Z,9.25
2023-03-26T18:06:10.974Z,9.75
2023-03-26T18:09:06.939Z,8.75
2023-03-26T18:11:47.001Z,9.00
2023-03-26T18:14:26.796Z,10.00
2023-03-26T18:17:00.461Z,10.00
2023-03-26T18:19:32.637Z,10.25
2023-03-26T18:22:07.976Z,9.75
2023-03-26T18:24:40.736Z,11.75
2023-03-26T18:27:19.946Z,10.75
2023-03-26T18:30:03.056Z,10.50
2023-03-26T18:32:34.219Z,6.50
2023-03-26T18:35:21.724Z,9.25
2023-03-26T18:37:55.241Z,10.50
2023-03-26T18:40:28.800Z,8.75
2023-03-26T18:43:04.019Z,9.50
2023-03-26T18:45:37.734Z,4.25
2023-03-26T18:48:13.680Z,8.25
2023-03-26T18:50:45.990Z,6.00
2023-03-26T18:53:22.109Z,7.75
2023-03-26T18:55:53.423Z,5.75
2023-03-26T18:58:35.535Z,5.50
2023-03-26T19:01:23.765Z,8.25
2023-03-26T19:03:44.488Z,7.25
2023-03-26T19:06:16.894Z,6.75
2023-03-26T19:08:48.074Z,6.00
2023-03-26T19:11:19.391Z,6.75
2023-03-26T19:14:16.947Z,8.25
2023-03-26T19:16:55.886Z,8.75
2023-03-26T19:19:29.617Z,10.00
2023-03-26T19:22:02.079Z,10.25
2023-03-26T19:24:35.177Z,10.25
2023-03-26T19:27:06.067Z,10.25
2023-03-26T19:29:37.303Z,8.25
2023-03-26T19:32:20.570Z,8.00
2023-03-26T19:34:53.289Z,11.25
2023-03-26T19:37:27.460Z,9.75
2023-03-26T19:40:03.833Z,9.75
2023-03-26T19:42:43.081Z,10.25
2023-03-26T19:45:12.480Z,10.00
2023-03-26T19:47:50.456Z,10.75
2023-03-26T19:50:25.297Z,12.50
2023-03-26T19:53:15.178Z,10.00
2023-03-26T19:55:41.485Z,11.00
2023-03-26T19:58:14.448Z,11.75
2023-03-26T20:00:48.415Z,10.75
2023-03-26T20:03:28.048Z,11.25
2023-03-26T20:05:58.398Z,6.25
2023-03-26T20:08:30.236Z,9.50
2023-03-26T20:11:03.098Z,9.50
2023-03-26T20:13:33.574Z,10.00
2023-03-26T20:16:31.082Z,9.25
2023-03-26T20:19:02.485Z,9.75
2023-03-26T20:21:33.418Z,5.75
2023-03-26T20:24:07.173Z,10.00
2023-03-26T20:26:37.595Z,8.75
2023-03-26T20:29:09.398Z,7.25
2023-03-26T20:31:40.883Z,9.00
2023-03-26T20:34:20.960Z,8.00
2023-03-26T20:36:54.931Z,9.00
2023-03-26T20:39:26.593Z,9.00
2023-03-26T20:41:57.534Z,8.50
2023-03-26T20:44:29.421Z,10.25
2023-03-26T20:46:59.755Z,7.75
2023-03-26T20:49:30.241Z,8.75
2023-03-26T20:52:00.952Z,10.75
2023-03-26T20:54:33.158Z,5.75
2023-03-26T20:57:03.866Z,9.50
2023-03-26T20:59:35.389Z,9.50
2023-03-26T21:02:06.005Z,9.50
2023-03-26T21:04:36.730Z,8.50
2023-03-26T21:07:17.102Z,8.75
2023-03-26T21:09:40.977Z,8.50
2023-03-26T21:12:38.342Z,9.50
2023-03-26T21:15:22.429Z,6.75
2023-03-26T21:17:45.311Z,7.75
2023-03-26T21:20:17.159Z,5.00
2023-03-26T21:23:12.688Z,8.00
2023-03-26T21:26:04.347Z,8.00
2023-03-26T21:28:44.455Z,5.00
2023-03-26T21:31:21.466Z,5.25
2023-03-26T21:33:52.489Z,6.25
2023-03-26T21:36:24.083Z,6.75
2023-03-26T21:38:54.740Z,9.00
2023-03-26T21:41:44.465Z,5.00
2023-03-26T21:44:17.015Z,7.50
2023-03-26T21:46:49.508Z,6.00
2023-03-26T21:49:20.292Z,9.50
2023-03-26T21:51:51.297Z,8.75
2023-03-26T21:54:33.236Z,8.00
2023-03-26T21:57:09.630Z,5.25
2023-03-26T21:59:47.352Z,8.25
2023-03-26T22:02:23.366Z,5.00
2023-03-26T22:04:56.716Z,8.50
2023-03-26T22:07:39.683Z,8.25
2023-03-26T22:10:10.172Z,6.25
2023-03-26T22:12:40.874Z,9.00
2023-03-26T22:15:11.881Z,8.00
2023-03-26T22:17:43.007Z,8.25
2023-03-26T22:20:15.407Z,8.50
2023-03-26T22:22:46.428Z,6.00
2023-03-26T22:25:18.372Z,9.25
2023-03-26T22:27:51.223Z,7.00
2023-03-26T22:30:21.738Z,9.75
2023-03-26T22:32:52.418Z,11.25
2023-03-26T22:35:22.684Z,10.00
2023-03-26T22:37:53.011Z,4.50
2023-03-26T22:40:26.325Z,9.00
2023-03-26T22:42:57.105Z,5.50
2023-03-26T22:45:27.744Z,9.50
2023-03-26T22:48:04.067Z,9.50
2023-03-26T22:50:30.772Z,10.00
2023-03-26T22:53:02.777Z,10.50
2023-03-26T22:55:34.533Z,8.50
2023-03-26T22:58:05.498Z,10.00
2023-03-26T23:00:37.118Z,10.00
2023-03-26T23:03:08.221Z,8.75
2023-03-26T23:05:40.515Z,10.00
2023-03-26T23:08:11.179Z,10.00
2023-03-26T23:10:42.295Z,8.00
2023-03-26T23:13:12.731Z,8.00
2023-03-26T23:15:43.806Z,9.75
2023-03-26T23:18:17.205Z,9.25
2023-03-26T23:20:53.670Z,10.25
2023-03-26T23:23:27.132Z,10.00
2023-03-26T23:26:00.265Z,11.00
2023-03-26T23:28:39.480Z,11.50
2023-03-26T23:31:09.852Z,9.25
2023-03-26T23:33:42.537Z,9.00
2023-03-26T23:36:14.901Z,8.25
2023-03-26T23:38:47.066Z,8.75
2023-03-26T23:41:20.700Z,11.00
2023-03-26T23:43:55.760Z,12.00
2023-03-26T23:46:29.279Z,10.00
2023-03-26T23:49:00.182Z,10.50
2023-03-26T23:51:32.084Z,8.50
2023-03-26T23:54:03.866Z,9.25
2023-03-26T23:56:34.442Z,11.75
2023-03-26T23:59:05.036Z,13.00
